createdAt,value
2018-01-10T00:01:12.565Z,3.00
2018-01-10T00:03:43.445Z,2.90
2018-01-10T00:06:13.858Z,2.90
2018-01-10T00:08:43.837Z,2.80
2018-01-10T00:11:15.058Z,2.80
2018-01-10T00:13:45.119Z,2.70
2018-01-10T00:16:16.408Z,2.70
2018-01-10T00:18:46.388Z,2.70
2018-01-10T00:21:17.352Z,2.70
2018-01-10T00:23:48.753Z,2.70
2018-01-10T00:26:20.932Z,2.80
2018-01-10T00:28:52.080Z,2.80
2018-01-10T00:32:52.862Z,2.70
2018-01-10T00:35:23.019Z,2.80
2018-01-10T00:37:53.973Z,3.00
2018-01-10T00:40:25.004Z,3.20
2018-01-10T00:42:55.754Z,3.10
2018-01-10T00:45:26.505Z,3.50
2018-01-10T00:47:56.981Z,3.50
2018-01-10T00:50:27.369Z,3.90
2018-01-10T00:52:57.596Z,4.00
2018-01-10T00:55:27.817Z,4.10
2018-01-10T00:57:58.364Z,4.40
2018-01-10T01:00:28.648Z,4.60
2018-01-10T01:02:59.184Z,4.70
2018-01-10T01:05:29.362Z,4.80
2018-01-10T01:07:59.791Z,4.90
2018-01-10T01:10:29.871Z,5.00
2018-01-10T01:13:01.740Z,5.10
2018-01-10T01:15:31.744Z,5.10
2018-01-10T01:18:02.762Z,5.10
2018-01-10T01:20:32.957Z,5.20
2018-01-10T01:23:03.907Z,5.40
2018-01-10T01:25:34.212Z,5.40
2018-01-10T01:28:05.189Z,5.40
2018-01-10T01:30:35.697Z,5.40
2018-01-10T01:33:06.840Z,5.40
2018-01-10T01:35:37.292Z,5.40
2018-01-10T01:38:07.329Z,5.50
2018-01-10T01:40:37.597Z,5.50
2018-01-10T01:43:08.529Z,5.60
2018-01-10T01:45:39.069Z,5.50
2018-01-10T01:48:09.243Z,5.60
2018-01-10T01:50:39.652Z,5.50
2018-01-10T01:53:09.635Z,5.40
2018-01-10T01:55:41.388Z,5.40
2018-01-10T01:58:11.653Z,5.30
2018-01-10T02:00:42.121Z,5.40
2018-01-10T02:03:13.496Z,5.60
2018-01-10T02:05:43.742Z,5.60
2018-01-10T02:08:14.025Z,5.70
2018-01-10T02:10:45.164Z,6.00
2018-01-10T02:13:15.508Z,5.90
2018-01-10T02:15:45.769Z,6.00
2018-01-10T02:18:16.973Z,5.80
2018-01-10T02:20:47.609Z,5.80
2018-01-10T02:23:18.141Z,5.70
2018-01-10T02:25:48.321Z,5.70
2018-01-10T02:28:21.117Z,5.70
2018-01-10T02:30:51.749Z,5.70
2018-01-10T02:33:23.003Z,5.70
2018-01-10T02:35:53.006Z,5.70
2018-01-10T02:38:23.855Z,5.70
2018-01-10T02:40:54.236Z,5.70
2018-01-10T02:43:25.124Z,5.60
2018-01-10T02:45:55.727Z,5.60
2018-01-10T02:48:26.363Z,5.60
2018-01-10T02:50:57.283Z,5.60
2018-01-10T02:53:27.464Z,5.60
2018-01-10T02:55:57.748Z,5.60
2018-01-10T02:58:28.088Z,5.60
2018-01-10T03:00:58.592Z,5.70
2018-01-10T03:03:28.882Z,5.70
2018-01-10T03:05:59.867Z,5.80
2018-01-10T03:08:30.811Z,5.80
2018-01-10T03:11:01.685Z,6.10
2018-01-10T03:13:33.405Z,6.10
2018-01-10T03:16:03.929Z,6.10
2018-01-10T03:18:34.700Z,6.10
2018-01-10T03:21:04.880Z,6.10
2018-01-10T03:23:35.132Z,6.20
2018-01-10T03:26:06.277Z,6.30
2018-01-10T03:28:36.996Z,6.30
2018-01-10T03:31:07.674Z,6.30
2018-01-10T03:33:37.949Z,6.20
2018-01-10T03:36:07.903Z,6.20
2018-01-10T03:38:38.332Z,6.20
2018-01-10T03:41:08.348Z,6.20
2018-01-10T03:43:38.707Z,6.20
2018-01-10T03:46:09.312Z,6.30
2018-01-10T03:48:40.669Z,6.20
2018-01-10T03:51:10.760Z,6.20
2018-01-10T03:53:41.109Z,6.30
2018-01-10T03:56:11.596Z,6.20
2018-01-10T03:58:41.762Z,6.20
2018-01-10T04:01:12.818Z,6.30
2018-01-10T04:03:43.808Z,6.20
2018-01-10T04:06:13.800Z,6.20
2018-01-10T04:08:44.061Z,6.20
2018-01-10T04:11:14.223Z,6.20
2018-01-10T04:13:44.542Z,6.20
2018-01-10T04:16:15.629Z,6.20
2018-01-10T04:18:45.949Z,6.20
2018-01-10T04:21:16.156Z,6.10
2018-01-10T04:23:46.210Z,6.10
2018-01-10T04:26:16.685Z,6.10
2018-01-10T04:28:47.237Z,6.20
2018-01-10T04:31:17.782Z,6.20
2018-01-10T04:33:47.936Z,6.20
2018-01-10T04:36:19.357Z,6.10
2018-01-10T04:38:49.418Z,6.10
2018-01-10T04:41:19.874Z,6.00
2018-01-10T04:43:50.064Z,6.00
2018-01-10T04:46:20.600Z,5.90
2018-01-10T04:48:50.785Z,5.90
2018-01-10T04:51:20.992Z,5.90
2018-01-10T04:53:51.157Z,5.90
2018-01-10T04:56:21.895Z,5.80
2018-01-10T04:58:52.356Z,5.80
2018-01-10T05:01:23.369Z,5.70
2018-01-10T05:03:54.097Z,5.70
2018-01-10T05:06:25.043Z,5.60
2018-01-10T05:08:55.181Z,5.50
2018-01-10T05:11:25.558Z,5.50
2018-01-10T05:13:55.914Z,5.60
2018-01-10T05:16:27.154Z,5.50
2018-01-10T05:18:57.680Z,5.40
2018-01-10T05:21:27.689Z,5.50
2018-01-10T05:23:58.503Z,5.40
2018-01-10T05:26:29.048Z,5.50
2018-01-10T05:28:59.270Z,5.50
2018-01-10T05:31:30.573Z,5.40
2018-01-10T05:34:00.764Z,5.40
2018-01-10T05:36:31.170Z,5.40
2018-01-10T05:39:02.311Z,5.30
2018-01-10T05:41:32.343Z,5.30
2018-01-10T05:44:02.392Z,5.40
2018-01-10T05:46:32.434Z,5.40
2018-01-10T05:49:02.772Z,5.50
2018-01-10T05:51:32.793Z,5.40
2018-01-10T05:54:03.634Z,5.40
2018-01-10T05:56:34.392Z,5.30
2018-01-10T05:59:04.588Z,5.30
2018-01-10T06:01:35.552Z,5.20
2018-01-10T06:04:05.836Z,5.20
2018-01-10T06:06:35.813Z,5.20
2018-01-10T06:09:06.381Z,5.20
2018-01-10T06:11:37.443Z,5.10
2018-01-10T06:14:07.912Z,5.10
2018-01-10T06:16:38.328Z,5.10
2018-01-10T06:19:10.152Z,5.00
2018-01-10T06:21:41.702Z,5.00
2018-01-10T06:24:13.274Z,5.00
2018-01-10T06:26:47.517Z,4.90
2018-01-10T06:29:24.558Z,5.00
2018-01-10T06:32:01.058Z,4.90
2018-01-10T06:34:37.125Z,4.90
2018-01-10T06:37:08.052Z,5.00
2018-01-10T06:39:38.129Z,5.00
2018-01-10T06:42:09.730Z,5.10
2018-01-10T06:44:40.374Z,5.00
2018-01-10T06:47:10.849Z,5.00
2018-01-10T06:49:41.112Z,5.10
2018-01-10T06:52:11.444Z,5.10
2018-01-10T06:54:41.824Z,5.20
2018-01-10T06:57:11.986Z,5.20
2018-01-10T06:59:42.233Z,5.30
2018-01-10T07:02:12.456Z,5.30
2018-01-10T07:04:42.584Z,5.30
2018-01-10T07:07:12.712Z,5.30
2018-01-10T07:10:14.385Z,5.30
2018-01-10T07:12:44.537Z,5.40
2018-01-10T07:15:14.829Z,5.40
2018-01-10T07:17:45.172Z,5.30
2018-01-10T07:20:15.732Z,5.40
2018-01-10T07:22:45.795Z,5.30
2018-01-10T07:25:15.900Z,5.30
2018-01-10T07:27:46.840Z,5.30
2018-01-10T07:30:17.720Z,5.20
2018-01-10T07:32:47.989Z,5.20
2018-01-10T07:35:19.029Z,5.20
2018-01-10T07:37:49.592Z,5.20
2018-01-10T07:40:19.786Z,5.20
2018-01-10T07:42:50.935Z,5.10
2018-01-10T07:45:21.770Z,5.20
2018-01-10T07:47:52.677Z,5.20
2018-01-10T07:50:22.748Z,5.20
2018-01-10T07:52:53.257Z,5.20
2018-01-10T07:55:24.117Z,5.20
2018-01-10T07:57:54.292Z,5.20
2018-01-10T08:00:24.610Z,5.20
2018-01-10T08:02:55.722Z,5.10
2018-01-10T08:05:25.901Z,5.00
2018-01-10T08:07:56.152Z,5.10
2018-01-10T08:10:26.336Z,5.20
2018-01-10T08:12:58.329Z,5.30
2018-01-10T08:15:28.457Z,5.30
2018-01-10T08:17:59.453Z,5.40
2018-01-10T08:20:30.442Z,5.40
2018-01-10T08:24:30.498Z,5.40
2018-01-10T08:27:00.963Z,5.40
2018-01-10T08:29:31.813Z,5.40
2018-01-10T08:32:02.485Z,5.40
2018-01-10T08:34:32.880Z,5.50
2018-01-10T08:37:03.284Z,5.50
2018-01-10T08:39:33.511Z,5.50
2018-01-10T08:42:04.056Z,5.50
2018-01-10T08:44:34.212Z,5.60
2018-01-10T08:47:04.930Z,5.70
2018-01-10T08:49:35.066Z,5.80
2018-01-10T08:52:05.320Z,5.80
2018-01-10T08:54:35.518Z,5.80
2018-01-10T08:57:05.773Z,5.80
2018-01-10T08:59:36.237Z,5.80
2018-01-10T09:02:06.367Z,5.80
2018-01-10T09:04:36.637Z,5.80
2018-01-10T09:07:06.876Z,5.80
2018-01-10T09:09:37.018Z,5.80
2018-01-10T09:12:07.213Z,5.80
2018-01-10T09:14:37.726Z,5.80
2018-01-10T09:17:08.826Z,5.90
2018-01-10T09:19:39.163Z,5.80
2018-01-10T09:22:10.218Z,5.90
2018-01-10T09:24:41.093Z,6.00
2018-01-10T09:27:11.805Z,6.00
2018-01-10T09:29:41.856Z,6.00
2018-01-10T09:32:12.149Z,6.10
2018-01-10T09:34:42.465Z,6.10
2018-01-10T09:37:12.681Z,6.10
2018-01-10T09:39:42.940Z,6.20
2018-01-10T09:42:13.980Z,6.30
2018-01-10T09:44:44.522Z,6.30
2018-01-10T09:47:14.780Z,6.30
2018-01-10T09:49:45.641Z,6.50
2018-01-10T09:52:15.829Z,6.50
2018-01-10T09:54:46.174Z,6.60
2018-01-10T09:57:17.005Z,6.80
2018-01-10T09:59:47.600Z,6.80
2018-01-10T10:02:17.915Z,6.80
2018-01-10T10:04:48.496Z,6.90
2018-01-10T10:07:19.645Z,7.50
2018-01-10T10:09:51.096Z,7.90
2018-01-10T10:12:21.248Z,7.90
2018-01-10T10:14:52.372Z,8.20
2018-01-10T10:17:22.585Z,8.30
2018-01-10T10:19:53.144Z,8.60
2018-01-10T10:22:23.490Z,8.80
2018-01-10T10:24:53.708Z,9.10
2018-01-10T10:27:23.928Z,9.30
2018-01-10T10:29:55.545Z,9.40
2018-01-10T10:32:25.772Z,9.70
2018-01-10T10:34:56.121Z,9.70
2018-01-10T10:37:26.337Z,10.10
2018-01-10T10:39:57.711Z,10.20
2018-01-10T10:42:27.913Z,10.20
2018-01-10T10:44:59.464Z,10.00
2018-01-10T10:47:29.819Z,10.00
2018-01-10T10:50:00.077Z,9.80
2018-01-10T10:52:30.758Z,9.50
2018-01-10T10:55:02.203Z,9.10
2018-01-10T10:57:32.712Z,9.10
2018-01-10T11:00:03.402Z,9.00
2018-01-10T11:02:33.673Z,8.90
2018-01-10T11:05:04.627Z,8.80
2018-01-10T11:07:35.086Z,8.70
2018-01-10T11:10:08.673Z,8.60
2018-01-10T11:12:39.150Z,8.50
2018-01-10T11:15:09.658Z,8.50
2018-01-10T11:17:40.137Z,8.50
2018-01-10T11:20:10.298Z,8.40
2018-01-10T11:22:41.617Z,8.40
2018-01-10T11:25:12.659Z,8.40
2018-01-10T11:27:46.460Z,8.60
2018-01-10T11:30:17.159Z,8.60
2018-01-10T11:32:48.268Z,8.70
2018-01-10T11:35:18.774Z,8.70
2018-01-10T11:37:48.976Z,8.70
2018-01-10T11:40:19.235Z,8.70
2018-01-10T11:42:49.482Z,8.70
2018-01-10T11:45:19.744Z,8.70
2018-01-10T11:47:50.819Z,8.70
2018-01-10T11:50:21.873Z,8.70
2018-01-10T11:52:52.096Z,8.70
2018-01-10T11:55:22.366Z,8.70
2018-01-10T11:57:52.584Z,8.70
2018-01-10T12:00:23.392Z,8.70
2018-01-10T12:02:54.541Z,8.80
2018-01-10T12:05:24.952Z,8.70
2018-01-10T12:07:56.208Z,8.80
2018-01-10T12:10:26.439Z,8.90
2018-01-10T12:12:56.781Z,8.90
2018-01-10T12:15:27.761Z,8.90
2018-01-10T12:17:58.166Z,8.90
2018-01-10T12:20:29.672Z,8.90
2018-01-10T12:23:00.983Z,8.90
2018-01-10T12:25:36.437Z,8.90
2018-01-10T12:28:08.445Z,8.90
2018-01-10T12:30:38.815Z,8.90
2018-01-10T12:33:09.124Z,8.80
2018-01-10T12:35:40.132Z,8.80
2018-01-10T12:38:11.151Z,8.80
2018-01-10T12:40:41.490Z,8.80
2018-01-10T12:43:11.666Z,8.80
2018-01-10T12:45:43.032Z,8.80
2018-01-10T12:48:13.223Z,8.70
2018-01-10T12:50:44.283Z,8.90
2018-01-10T12:53:15.969Z,8.80
2018-01-10T12:55:46.183Z,8.90
2018-01-10T12:58:16.547Z,8.90
2018-01-10T13:00:47.818Z,9.00
2018-01-10T13:03:18.821Z,9.00
2018-01-10T13:05:49.051Z,9.00
2018-01-10T13:08:21.955Z,9.00
2018-01-10T13:10:52.424Z,9.00
2018-01-10T13:13:22.746Z,9.00
2018-01-10T13:15:52.873Z,9.00
2018-01-10T13:18:23.218Z,9.00
2018-01-10T13:20:54.235Z,9.00
2018-01-10T13:23:24.980Z,9.00
2018-01-10T13:25:55.333Z,9.00
2018-01-10T13:28:26.489Z,8.90
2018-01-10T13:30:57.782Z,8.90
2018-01-10T13:33:27.928Z,8.90
2018-01-10T13:35:58.097Z,9.00
2018-01-10T13:38:29.118Z,9.00
2018-01-10T13:41:00.293Z,9.10
2018-01-10T13:43:30.538Z,9.10
2018-01-10T13:46:00.791Z,9.10
2018-01-10T13:48:30.911Z,9.10
2018-01-10T13:51:01.532Z,9.20
2018-01-10T13:53:31.775Z,9.20
2018-01-10T13:56:02.810Z,9.10
2018-01-10T13:58:33.101Z,9.10
2018-01-10T14:01:03.303Z,9.10
2018-01-10T14:03:33.631Z,9.20
2018-01-10T14:06:04.212Z,9.20
2018-01-10T14:08:35.118Z,9.30
2018-01-10T14:11:05.281Z,9.30
2018-01-10T14:13:36.315Z,9.80
2018-01-10T14:16:07.770Z,9.90
2018-01-10T14:18:38.826Z,10.00
2018-01-10T14:21:09.049Z,10.00
2018-01-10T14:23:39.239Z,10.10
2018-01-10T14:26:10.204Z,10.10
2018-01-10T14:28:41.937Z,10.10
2018-01-10T14:31:14.187Z,10.00
2018-01-10T14:33:45.408Z,10.00
2018-01-10T14:36:15.723Z,9.90
2018-01-10T14:38:46.616Z,9.80
2018-01-10T14:41:17.179Z,9.70
2018-01-10T14:43:47.939Z,9.70
2018-01-10T14:46:18.352Z,9.70
2018-01-10T14:48:49.715Z,9.70
2018-01-10T14:51:21.006Z,9.70
2018-01-10T14:53:51.972Z,9.70
2018-01-10T14:56:22.568Z,9.70
2018-01-10T14:58:54.010Z,9.60
2018-01-10T15:01:24.247Z,9.60
2018-01-10T15:03:54.527Z,9.60
2018-01-10T15:06:25.605Z,9.50
2018-01-10T15:08:55.956Z,9.40
2018-01-10T15:11:26.339Z,9.40
2018-01-10T15:13:56.762Z,9.40
2018-01-10T15:16:27.815Z,9.30
2018-01-10T15:18:58.772Z,9.30
2018-01-10T15:21:30.135Z,9.20
2018-01-10T15:24:00.295Z,9.20
2018-01-10T15:26:30.532Z,9.10
2018-01-10T15:29:01.096Z,9.10
2018-01-10T15:31:32.176Z,9.10
2018-01-10T15:34:02.567Z,9.10
2018-01-10T15:36:32.738Z,9.00
2018-01-10T15:39:03.199Z,9.00
2018-01-10T15:41:34.301Z,8.90
2018-01-10T15:44:06.054Z,8.90
2018-01-10T15:46:37.360Z,8.80
2018-01-10T15:49:08.811Z,8.80
2018-01-10T15:51:39.226Z,8.70
2018-01-10T15:54:12.913Z,8.70
2018-01-10T15:56:43.133Z,8.70
2018-01-10T15:59:13.562Z,8.70
2018-01-10T16:01:45.227Z,8.60
2018-01-10T16:04:16.466Z,8.50
2018-01-10T16:06:47.471Z,8.50
2018-01-10T16:09:18.211Z,8.40
2018-01-10T16:11:48.490Z,8.40
2018-01-10T16:14:19.320Z,8.50
2018-01-10T16:16:50.432Z,8.40
2018-01-10T16:19:25.595Z,8.40
2018-01-10T16:21:55.996Z,8.40
2018-01-10T16:24:26.679Z,8.30
2018-01-10T16:26:57.846Z,8.30
2018-01-10T16:29:28.475Z,8.30
2018-01-10T16:31:59.414Z,8.30
2018-01-10T16:34:29.851Z,8.30
2018-01-10T16:37:00.163Z,8.40
2018-01-10T16:39:32.401Z,8.30
2018-01-10T16:42:04.778Z,8.20
2018-01-10T16:44:35.068Z,8.20
2018-01-10T16:47:06.546Z,8.00
2018-01-10T16:49:36.872Z,8.00
2018-01-10T16:52:08.078Z,7.90
2018-01-10T16:54:39.239Z,7.80
2018-01-10T16:57:10.896Z,7.80
2018-01-10T16:59:41.174Z,7.80
2018-01-10T17:02:12.314Z,7.70
2018-01-10T17:04:42.514Z,7.70
2018-01-10T17:07:12.946Z,7.70
2018-01-10T17:09:43.118Z,7.70
2018-01-10T17:12:14.027Z,7.70
2018-01-10T17:14:44.557Z,7.70
2018-01-10T17:17:14.966Z,7.60
2018-01-10T17:19:45.201Z,7.70
2018-01-10T17:22:15.446Z,7.70
2018-01-10T17:24:45.696Z,7.70
2018-01-10T17:27:16.590Z,7.70
2018-01-10T17:29:48.027Z,7.70
2018-01-10T17:32:18.466Z,7.70
2018-01-10T17:34:49.020Z,7.70
2018-01-10T17:37:19.320Z,7.70
2018-01-10T17:39:50.094Z,7.70
2018-01-10T17:42:20.438Z,7.80
2018-01-10T17:44:51.612Z,7.80
2018-01-10T17:47:21.931Z,7.70
2018-01-10T17:49:54.115Z,7.70
2018-01-10T17:52:24.399Z,7.60
2018-01-10T17:54:54.565Z,7.70
2018-01-10T17:57:26.359Z,7.60
2018-01-10T17:59:57.052Z,7.60
2018-01-10T18:02:29.175Z,7.60
2018-01-10T18:04:59.491Z,7.50
2018-01-10T18:07:29.916Z,7.60
2018-01-10T18:10:00.251Z,7.50
2018-01-10T18:12:31.899Z,7.50
2018-01-10T18:15:03.124Z,7.50
2018-01-10T18:17:34.183Z,7.50
2018-01-10T18:20:05.020Z,7.50
2018-01-10T18:22:38.267Z,7.40
2018-01-10T18:25:10.694Z,7.40
2018-01-10T18:27:42.079Z,7.40
2018-01-10T18:30:19.064Z,7.40
2018-01-10T18:32:54.175Z,7.40
2018-01-10T18:35:26.314Z,7.40
2018-01-10T18:37:58.178Z,7.30
2018-01-10T18:40:28.506Z,7.30
2018-01-10T18:42:58.721Z,7.30
2018-01-10T18:45:30.036Z,7.30
2018-01-10T18:48:01.372Z,7.30
2018-01-10T18:50:31.767Z,7.20
2018-01-10T18:53:02.969Z,7.10
2018-01-10T18:55:33.376Z,7.10
2018-01-10T18:58:04.935Z,7.20
2018-01-10T19:00:35.505Z,7.10
2018-01-10T19:03:05.684Z,7.10
2018-01-10T19:05:36.962Z,7.10
2018-01-10T19:08:07.281Z,7.10
2018-01-10T19:10:42.952Z,7.00
2018-01-10T19:13:20.970Z,7.00
2018-01-10T20:05:25.898Z,6.20
2018-01-10T20:07:56.433Z,6.00
2018-01-10T20:10:31.009Z,6.00
2018-01-10T20:13:04.830Z,6.00
2018-01-10T20:15:37.169Z,5.90
2018-01-10T20:18:08.409Z,5.90
2018-01-10T20:20:39.354Z,6.00
2018-01-10T20:23:11.270Z,6.00
2018-01-10T20:25:41.904Z,5.90
2018-01-10T20:28:13.466Z,6.00
2018-01-10T20:30:43.682Z,6.00
2018-01-10T20:33:13.970Z,6.00
2018-01-10T20:35:44.491Z,6.00
2018-01-10T20:38:16.187Z,5.90
2018-01-10T20:40:46.955Z,5.90
2018-01-10T20:43:18.376Z,5.80
2018-01-10T20:45:48.874Z,5.80
2018-01-10T20:48:20.608Z,5.70
2018-01-10T20:50:51.309Z,5.70
2018-01-10T20:53:21.646Z,5.70
2018-01-10T20:55:52.919Z,5.50
2018-01-10T20:58:24.243Z,5.40
2018-01-10T21:00:58.769Z,5.40
2018-01-10T21:03:30.073Z,5.40
2018-01-10T21:06:00.637Z,5.30
2018-01-10T21:08:31.092Z,5.30
2018-01-10T21:11:01.389Z,5.30
2018-01-10T21:13:32.846Z,5.30
2018-01-10T21:16:04.739Z,5.20
2018-01-10T21:18:54.770Z,5.20
2018-01-10T21:21:30.736Z,5.20
2018-01-10T21:24:01.613Z,5.20
2018-01-10T21:26:32.856Z,5.20
2018-01-10T21:29:03.261Z,5.20
2018-01-10T21:31:34.383Z,5.00
2018-01-10T21:34:05.175Z,5.00
2018-01-10T21:36:35.700Z,5.00
2018-01-10T21:39:06.451Z,4.90
2018-01-10T21:41:36.864Z,4.90
2018-01-10T21:44:12.191Z,4.80
2018-01-10T21:46:44.836Z,4.80
2018-01-10T21:49:15.534Z,4.70
2018-01-10T21:51:46.057Z,4.70
2018-01-10T21:54:16.478Z,4.60
2018-01-10T21:57:07.891Z,4.60
2018-01-10T21:59:39.625Z,4.50
2018-01-10T22:02:10.221Z,4.50
2018-01-10T22:04:41.940Z,4.50
2018-01-10T22:07:12.793Z,4.40
2018-01-10T22:09:43.353Z,4.40
2018-01-10T22:12:15.118Z,4.30
2018-01-10T22:14:46.057Z,4.30
2018-01-10T22:17:18.030Z,4.50
2018-01-10T22:19:48.895Z,4.50
2018-01-10T22:22:20.491Z,4.40
2018-01-10T22:24:51.287Z,4.50
2018-01-10T22:27:21.756Z,4.40
2018-01-10T22:29:52.286Z,4.30
2018-01-10T22:32:22.952Z,4.20
2018-01-10T22:34:53.677Z,4.20
2018-01-10T22:37:23.739Z,4.10
2018-01-10T22:39:54.017Z,4.20
2018-01-10T22:42:24.412Z,4.20
2018-01-10T22:44:55.693Z,4.00
2018-01-10T22:47:26.140Z,4.00
2018-01-10T22:49:56.091Z,4.00
2018-01-10T22:52:27.067Z,3.90
2018-01-10T22:54:57.695Z,3.90
2018-01-10T22:57:34.965Z,3.80
2018-01-10T23:00:06.984Z,3.80
2018-01-10T23:02:37.916Z,3.90
2018-01-10T23:05:08.533Z,3.90
2018-01-10T23:07:38.979Z,3.90
2018-01-10T23:10:09.282Z,4.00
2018-01-10T23:12:39.430Z,3.90
2018-01-10T23:15:11.706Z,3.90
2018-01-10T23:17:41.921Z,4.00
2018-01-10T23:20:12.411Z,4.00
2018-01-10T23:22:42.666Z,4.00
2018-01-10T23:25:12.904Z,4.00
2018-01-10T23:27:43.974Z,4.00
2018-01-10T23:30:19.536Z,4.00
2018-01-10T23:32:54.290Z,4.00
2018-01-10T23:35:25.184Z,3.90
2018-01-10T23:37:55.920Z,4.00
2018-01-10T23:40:27.738Z,4.00
2018-01-10T23:42:58.656Z,4.00
2018-01-10T23:45:34.733Z,4.00
2018-01-10T23:48:07.038Z,4.00
2018-01-10T23:50:37.963Z,4.10
2018-01-10T23:53:08.567Z,4.10
2018-01-10T23:55:38.848Z,4.10
2018-01-10T23:58:11.261Z,4.10
